sensor_id;sensor_type;location;lat;lon;timestamp;temperature;humidity
318;DHT22;146;53.448;10.228;2024-03-08T00:02:24;3.20;1.00
318;DHT22;146;53.448;10.228;2024-03-08T00:05:16;3.10;1.00
318;DHT22;146;53.448;10.228;2024-03-08T00:08:05;3.10;1.00
318;DHT22;146;53.448;10.228;2024-03-08T00:10:55;3.10;1.00
318;DHT22;146;53.448;10.228;2024-03-08T00:13:44;3.10;1.00
318;DHT22;146;53.448;10.228;2024-03-08T00:16:39;3.10;1.00
318;DHT22;146;53.448;10.228;2024-03-08T00:19:32;3.10;1.00
318;DHT22;146;53.448;10.228;2024-03-08T00:22:24;3.00;1.00
318;DHT22;146;53.448;10.228;2024-03-08T00:25:13;3.10;1.00
318;DHT22;146;53.448;10.228;2024-03-08T00:28:00;3.10;1.00
318;DHT22;146;53.448;10.228;2024-03-08T00:31:00;3.10;1.00
318;DHT22;146;53.448;10.228;2024-03-08T00:33:53;3.10;1.00
318;DHT22;146;53.448;10.228;2024-03-08T00:36:43;3.00;1.00
318;DHT22;146;53.448;10.228;2024-03-08T00:39:48;3.00;1.00
318;DHT22;146;53.448;10.228;2024-03-08T00:42:58;2.90;1.00
318;DHT22;146;53.448;10.228;2024-03-08T00:45:52;2.90;1.00
318;DHT22;146;53.448;10.228;2024-03-08T00:48:43;2.90;1.00
318;DHT22;146;53.448;10.228;2024-03-08T00:51:31;2.90;1.00
318;DHT22;146;53.448;10.228;2024-03-08T00:54:29;2.90;1.00
318;DHT22;146;53.448;10.228;2024-03-08T00:57:21;2.90;1.00
318;DHT22;146;53.448;10.228;2024-03-08T01:00:09;2.90;1.00
318;DHT22;146;53.448;10.228;2024-03-08T01:03:00;2.80;1.00
318;DHT22;146;53.448;10.228;2024-03-08T01:05:49;2.90;1.00
318;DHT22;146;53.448;10.228;2024-03-08T01:08:38;2.80;1.00
318;DHT22;146;53.448;10.228;2024-03-08T01:11:30;2.80;1.00
318;DHT22;146;53.448;10.228;2024-03-08T01:14:25;2.80;1.00
318;DHT22;146;53.448;10.228;2024-03-08T01:17:12;2.80;1.00
318;DHT22;146;53.448;10.228;2024-03-08T01:20:03;2.70;1.00
318;DHT22;146;53.448;10.228;2024-03-08T01:22:50;2.70;1.00
318;DHT22;146;53.448;10.228;2024-03-08T01:25:38;2.80;1.00
318;DHT22;146;53.448;10.228;2024-03-08T01:28:27;2.70;1.00
318;DHT22;146;53.448;10.228;2024-03-08T01:31:16;2.70;1.00
318;DHT22;146;53.448;10.228;2024-03-08T01:34:03;2.70;1.00
318;DHT22;146;53.448;10.228;2024-03-08T01:36:50;2.80;1.00
318;DHT22;146;53.448;10.228;2024-03-08T01:39:39;2.80;1.00
318;DHT22;146;53.448;10.228;2024-03-08T01:42:32;2.80;1.00
318;DHT22;146;53.448;10.228;2024-03-08T01:45:22;2.70;1.00
318;DHT22;146;53.448;10.228;2024-03-08T01:48:11;2.80;1.00
318;DHT22;146;53.448;10.228;2024-03-08T01:51:00;2.70;1.00
318;DHT22;146;53.448;10.228;2024-03-08T01:53:50;2.70;1.00
318;DHT22;146;53.448;10.228;2024-03-08T01:56:38;2.60;1.00
318;DHT22;146;53.448;10.228;2024-03-08T01:59:30;2.60;1.00
318;DHT22;146;53.448;10.228;2024-03-08T02:02:18;2.50;1.00
318;DHT22;146;53.448;10.228;2024-03-08T02:05:08;2.50;1.00
318;DHT22;146;53.448;10.228;2024-03-08T02:07:58;2.50;1.00
318;DHT22;146;53.448;10.228;2024-03-08T02:10:45;2.40;1.00
318;DHT22;146;53.448;10.228;2024-03-08T02:13:42;2.40;1.00
318;DHT22;146;53.448;10.228;2024-03-08T02:16:35;2.40;1.00
318;DHT22;146;53.448;10.228;2024-03-08T02:19:22;2.40;1.00
318;DHT22;146;53.448;10.228;2024-03-08T02:22:10;2.30;1.00
318;DHT22;146;53.448;10.228;2024-03-08T02:25:11;2.30;1.00
318;DHT22;146;53.448;10.228;2024-03-08T02:28:01;2.30;1.00
318;DHT22;146;53.448;10.228;2024-03-08T02:30:49;2.30;1.00
318;DHT22;146;53.448;10.228;2024-03-08T02:33:40;2.30;1.00
318;DHT22;146;53.448;10.228;2024-03-08T02:36:31;2.30;1.00
318;DHT22;146;53.448;10.228;2024-03-08T02:39:22;2.20;1.00
318;DHT22;146;53.448;10.228;2024-03-08T02:42:09;2.20;1.00
318;DHT22;146;53.448;10.228;2024-03-08T02:45:02;2.20;1.00
318;DHT22;146;53.448;10.228;2024-03-08T02:47:51;2.20;1.00
318;DHT22;146;53.448;10.228;2024-03-08T02:50:39;2.20;1.00
318;DHT22;146;53.448;10.228;2024-03-08T02:53:28;2.20;1.00
318;DHT22;146;53.448;10.228;2024-03-08T02:56:19;2.20;1.00
318;DHT22;146;53.448;10.228;2024-03-08T02:59:07;2.20;1.00
318;DHT22;146;53.448;10.228;2024-03-08T03:01:58;2.20;1.00
318;DHT22;146;53.448;10.228;2024-03-08T03:04:47;2.20;1.00
318;DHT22;146;53.448;10.228;2024-03-08T03:07:34;2.20;1.00
318;DHT22;146;53.448;10.228;2024-03-08T03:10:24;2.20;1.00
318;DHT22;146;53.448;10.228;2024-03-08T03:13:13;2.10;1.00
318;DHT22;146;53.448;10.228;2024-03-08T03:16:00;2.20;1.00
318;DHT22;146;53.448;10.228;2024-03-08T03:18:49;2.10;1.00
318;DHT22;146;53.448;10.228;2024-03-08T03:21:36;2.10;1.00
318;DHT22;146;53.448;10.228;2024-03-08T03:24:24;2.10;1.00
318;DHT22;146;53.448;10.228;2024-03-08T03:27:11;2.10;1.00
318;DHT22;146;53.448;10.228;2024-03-08T03:30:05;2.00;1.00
318;DHT22;146;53.448;10.228;2024-03-08T03:33:06;2.00;1.00
318;DHT22;146;53.448;10.228;2024-03-08T03:35:53;2.00;1.00
318;DHT22;146;53.448;10.228;2024-03-08T03:38:41;1.90;1.00
318;DHT22;146;53.448;10.228;2024-03-08T03:41:31;2.00;1.00
318;DHT22;146;53.448;10.228;2024-03-08T03:44:27;2.00;1.00
318;DHT22;146;53.448;10.228;2024-03-08T03:47:18;2.00;1.00
318;DHT22;146;53.448;10.228;2024-03-08T03:50:14;2.00;1.00
318;DHT22;146;53.448;10.228;2024-03-08T03:53:04;2.00;1.00
318;DHT22;146;53.448;10.228;2024-03-08T03:56:03;1.90;1.00
318;DHT22;146;53.448;10.228;2024-03-08T03:58:52;1.90;1.00
318;DHT22;146;53.448;10.228;2024-03-08T04:01:42;1.80;1.00
318;DHT22;146;53.448;10.228;2024-03-08T04:04:37;1.80;1.00
318;DHT22;146;53.448;10.228;2024-03-08T04:07:24;1.80;1.00
318;DHT22;146;53.448;10.228;2024-03-08T04:10:14;1.80;1.00
318;DHT22;146;53.448;10.228;2024-03-08T04:13:01;1.80;1.00
318;DHT22;146;53.448;10.228;2024-03-08T04:15:49;1.80;1.00
318;DHT22;146;53.448;10.228;2024-03-08T04:18:36;1.80;1.00
318;DHT22;146;53.448;10.228;2024-03-08T04:21:25;1.80;1.00
318;DHT22;146;53.448;10.228;2024-03-08T04:24:13;1.80;1.00
318;DHT22;146;53.448;10.228;2024-03-08T04:27:06;1.70;1.00
318;DHT22;146;53.448;10.228;2024-03-08T04:29:53;1.70;1.00
318;DHT22;146;53.448;10.228;2024-03-08T04:32:44;1.60;1.00
318;DHT22;146;53.448;10.228;2024-03-08T04:35:31;1.60;1.00
318;DHT22;146;53.448;10.228;2024-03-08T04:38:22;1.60;1.00
318;DHT22;146;53.448;10.228;2024-03-08T04:41:16;1.70;1.00
318;DHT22;146;53.448;10.228;2024-03-08T04:44:04;1.60;1.00
318;DHT22;146;53.448;10.228;2024-03-08T04:46:51;1.60;1.00
318;DHT22;146;53.448;10.228;2024-03-08T04:49:38;1.70;1.00
318;DHT22;146;53.448;10.228;2024-03-08T04:52:25;1.60;1.00
318;DHT22;146;53.448;10.228;2024-03-08T04:55:15;1.60;1.00
318;DHT22;146;53.448;10.228;2024-03-08T04:58:03;1.60;1.00
318;DHT22;146;53.448;10.228;2024-03-08T05:00:51;1.60;1.00
318;DHT22;146;53.448;10.228;2024-03-08T05:03:38;1.70;1.00
318;DHT22;146;53.448;10.228;2024-03-08T05:06:25;1.60;1.00
318;DHT22;146;53.448;10.228;2024-03-08T05:09:13;1.60;1.00
318;DHT22;146;53.448;10.228;2024-03-08T05:12:01;1.60;1.00
318;DHT22;146;53.448;10.228;2024-03-08T05:14:49;1.60;1.00
318;DHT22;146;53.448;10.228;2024-03-08T05:17:36;1.60;1.00
318;DHT22;146;53.448;10.228;2024-03-08T05:20:23;1.60;1.00
318;DHT22;146;53.448;10.228;2024-03-08T05:23:11;1.60;1.00
318;DHT22;146;53.448;10.228;2024-03-08T05:25:58;1.60;1.00
318;DHT22;146;53.448;10.228;2024-03-08T05:28:48;1.60;1.00
318;DHT22;146;53.448;10.228;2024-03-08T05:31:39;1.60;1.00
318;DHT22;146;53.448;10.228;2024-03-08T05:34:29;1.50;1.00
318;DHT22;146;53.448;10.228;2024-03-08T05:37:16;1.50;1.00
318;DHT22;146;53.448;10.228;2024-03-08T05:40:07;1.50;1.00
318;DHT22;146;53.448;10.228;2024-03-08T05:42:55;1.60;1.00
318;DHT22;146;53.448;10.228;2024-03-08T05:45:44;1.60;1.00
318;DHT22;146;53.448;10.228;2024-03-08T05:48:34;1.50;1.00
318;DHT22;146;53.448;10.228;2024-03-08T05:51:23;1.60;1.00
318;DHT22;146;53.448;10.228;2024-03-08T05:54:12;1.60;1.00
318;DHT22;146;53.448;10.228;2024-03-08T05:56:59;1.50;1.00
318;DHT22;146;53.448;10.228;2024-03-08T05:59:46;1.50;1.00
318;DHT22;146;53.448;10.228;2024-03-08T06:02:35;1.50;1.00
318;DHT22;146;53.448;10.228;2024-03-08T06:05:26;1.50;1.00
318;DHT22;146;53.448;10.228;2024-03-08T06:08:13;1.50;1.00
318;DHT22;146;53.448;10.228;2024-03-08T06:11:01;1.50;1.00
318;DHT22;146;53.448;10.228;2024-03-08T06:13:49;1.60;1.00
318;DHT22;146;53.448;10.228;2024-03-08T06:16:36;1.50;1.00
318;DHT22;146;53.448;10.228;2024-03-08T06:19:25;1.60;1.00
318;DHT22;146;53.448;10.228;2024-03-08T06:22:12;1.50;1.00
318;DHT22;146;53.448;10.228;2024-03-08T06:24:59;1.60;1.00
318;DHT22;146;53.448;10.228;2024-03-08T06:27:47;1.50;1.00
318;DHT22;146;53.448;10.228;2024-03-08T06:30:34;1.50;1.00
318;DHT22;146;53.448;10.228;2024-03-08T06:33:23;1.50;1.00
318;DHT22;146;53.448;10.228;2024-03-08T06:36:13;1.50;1.00
318;DHT22;146;53.448;10.228;2024-03-08T06:39:04;1.50;1.00
318;DHT22;146;53.448;10.228;2024-03-08T06:41:55;1.50;1.00
318;DHT22;146;53.448;10.228;2024-03-08T06:44:42;1.50;1.00
318;DHT22;146;53.448;10.228;2024-03-08T06:47:34;1.60;1.00
318;DHT22;146;53.448;10.228;2024-03-08T06:50:21;1.70;1.00
318;DHT22;146;53.448;10.228;2024-03-08T06:53:10;1.80;1.00
318;DHT22;146;53.448;10.228;2024-03-08T06:55:58;1.80;1.00
318;DHT22;146;53.448;10.228;2024-03-08T06:58:45;1.90;1.00
318;DHT22;146;53.448;10.228;2024-03-08T07:01:32;2.00;1.00
318;DHT22;146;53.448;10.228;2024-03-08T07:04:22;2.00;1.00
318;DHT22;146;53.448;10.228;2024-03-08T07:07:12;2.00;1.00
318;DHT22;146;53.448;10.228;2024-03-08T07:10:01;2.00;1.00
318;DHT22;146;53.448;10.228;2024-03-08T07:12:48;2.10;1.00
318;DHT22;146;53.448;10.228;2024-03-08T07:15:35;2.10;1.00
318;DHT22;146;53.448;10.228;2024-03-08T07:18:23;2.00;1.00
318;DHT22;146;53.448;10.228;2024-03-08T07:21:10;1.90;1.00
318;DHT22;146;53.448;10.228;2024-03-08T07:23:57;2.00;1.00
318;DHT22;146;53.448;10.228;2024-03-08T07:27:05;1.90;1.00
318;DHT22;146;53.448;10.228;2024-03-08T07:29:52;2.00;1.00
318;DHT22;146;53.448;10.228;2024-03-08T07:32:41;2.00;1.00
318;DHT22;146;53.448;10.228;2024-03-08T07:35:29;2.10;1.00
318;DHT22;146;53.448;10.228;2024-03-08T07:38:16;2.10;1.00
318;DHT22;146;53.448;10.228;2024-03-08T07:41:07;2.20;1.00
318;DHT22;146;53.448;10.228;2024-03-08T07:43:56;2.20;1.00
318;DHT22;146;53.448;10.228;2024-03-08T07:46:49;2.30;1.00
318;DHT22;146;53.448;10.228;2024-03-08T07:49:36;2.30;1.00
318;DHT22;146;53.448;10.228;2024-03-08T07:52:24;2.30;1.00
318;DHT22;146;53.448;10.228;2024-03-08T07:55:11;2.30;1.00
318;DHT22;146;53.448;10.228;2024-03-08T07:57:58;2.30;1.00
318;DHT22;146;53.448;10.228;2024-03-08T08:00:47;2.30;1.00
318;DHT22;146;53.448;10.228;2024-03-08T08:03:34;2.40;1.00
318;DHT22;146;53.448;10.228;2024-03-08T08:06:23;2.50;1.00
318;DHT22;146;53.448;10.228;2024-03-08T08:09:11;2.60;1.00
318;DHT22;146;53.448;10.228;2024-03-08T08:12:00;2.70;1.00
318;DHT22;146;53.448;10.228;2024-03-08T08:14:49;2.90;1.00
318;DHT22;146;53.448;10.228;2024-03-08T08:17:37;3.00;1.00
318;DHT22;146;53.448;10.228;2024-03-08T08:20:24;3.10;1.00
318;DHT22;146;53.448;10.228;2024-03-08T08:23:13;3.20;1.00
318;DHT22;146;53.448;10.228;2024-03-08T08:26:01;3.30;1.00
318;DHT22;146;53.448;10.228;2024-03-08T08:28:49;3.40;1.00
318;DHT22;146;53.448;10.228;2024-03-08T08:31:36;3.50;1.00
318;DHT22;146;53.448;10.228;2024-03-08T08:34:28;3.60;1.00
318;DHT22;146;53.448;10.228;2024-03-08T08:37:17;3.80;1.00
318;DHT22;146;53.448;10.228;2024-03-08T08:40:05;3.90;1.00
318;DHT22;146;53.448;10.228;2024-03-08T08:42:55;4.00;1.00
318;DHT22;146;53.448;10.228;2024-03-08T08:45:43;4.10;1.00
318;DHT22;146;53.448;10.228;2024-03-08T08:48:33;4.20;1.00
318;DHT22;146;53.448;10.228;2024-03-08T08:51:22;4.30;1.00
318;DHT22;146;53.448;10.228;2024-03-08T08:54:09;4.30;1.00
318;DHT22;146;53.448;10.228;2024-03-08T08:56:57;4.40;1.00
318;DHT22;146;53.448;10.228;2024-03-08T08:59:44;4.40;1.00
318;DHT22;146;53.448;10.228;2024-03-08T09:02:31;4.50;1.00
318;DHT22;146;53.448;10.228;2024-03-08T09:05:18;4.60;1.00
318;DHT22;146;53.448;10.228;2024-03-08T09:08:08;4.70;1.00
318;DHT22;146;53.448;10.228;2024-03-08T09:10:56;4.90;1.00
318;DHT22;146;53.448;10.228;2024-03-08T09:13:45;4.90;1.00
318;DHT22;146;53.448;10.228;2024-03-08T09:16:33;5.00;1.00
318;DHT22;146;53.448;10.228;2024-03-08T09:19:20;5.20;1.00
318;DHT22;146;53.448;10.228;2024-03-08T09:22:09;5.30;1.00
318;DHT22;146;53.448;10.228;2024-03-08T09:25:00;5.30;1.00
318;DHT22;146;53.448;10.228;2024-03-08T09:27:47;5.30;1.00
318;DHT22;146;53.448;10.228;2024-03-08T09:30:35;5.50;1.00
318;DHT22;146;53.448;10.228;2024-03-08T09:33:23;5.50;1.00
318;DHT22;146;53.448;10.228;2024-03-08T09:36:10;5.60;1.00
318;DHT22;146;53.448;10.228;2024-03-08T09:38:58;5.80;1.00
318;DHT22;146;53.448;10.228;2024-03-08T09:41:47;5.80;1.00
318;DHT22;146;53.448;10.228;2024-03-08T09:44:35;5.90;1.00
318;DHT22;146;53.448;10.228;2024-03-08T09:47:25;6.00;1.00
318;DHT22;146;53.448;10.228;2024-03-08T09:50:15;6.10;1.00
318;DHT22;146;53.448;10.228;2024-03-08T09:53:04;6.20;1.00
318;DHT22;146;53.448;10.228;2024-03-08T09:55:54;6.20;1.00
318;DHT22;146;53.448;10.228;2024-03-08T09:58:43;6.10;1.00
318;DHT22;146;53.448;10.228;2024-03-08T10:01:52;6.20;1.00
318;DHT22;146;53.448;10.228;2024-03-08T10:04:42;6.30;1.00
318;DHT22;146;53.448;10.228;2024-03-08T10:07:32;6.20;1.00
318;DHT22;146;53.448;10.228;2024-03-08T10:10:19;6.30;1.00
318;DHT22;146;53.448;10.228;2024-03-08T10:13:08;6.30;1.00
318;DHT22;146;53.448;10.228;2024-03-08T10:15:58;6.30;1.00
318;DHT22;146;53.448;10.228;2024-03-08T10:18:45;6.40;1.00
318;DHT22;146;53.448;10.228;2024-03-08T10:21:32;6.40;1.00
318;DHT22;146;53.448;10.228;2024-03-08T10:24:20;6.50;1.00
318;DHT22;146;53.448;10.228;2024-03-08T10:27:16;6.70;1.00
318;DHT22;146;53.448;10.228;2024-03-08T10:30:06;6.70;1.00
318;DHT22;146;53.448;10.228;2024-03-08T10:32:57;6.70;1.00
318;DHT22;146;53.448;10.228;2024-03-08T10:35:44;6.80;1.00
318;DHT22;146;53.448;10.228;2024-03-08T10:38:35;6.80;1.00
318;DHT22;146;53.448;10.228;2024-03-08T10:41:24;6.80;1.00
318;DHT22;146;53.448;10.228;2024-03-08T10:44:18;6.70;1.00
318;DHT22;146;53.448;10.228;2024-03-08T10:47:17;6.80;1.00
318;DHT22;146;53.448;10.228;2024-03-08T10:50:15;6.90;1.00
318;DHT22;146;53.448;10.228;2024-03-08T10:53:08;7.00;1.00
318;DHT22;146;53.448;10.228;2024-03-08T10:55:57;7.00;1.00
318;DHT22;146;53.448;10.228;2024-03-08T10:58:44;7.00;1.00
318;DHT22;146;53.448;10.228;2024-03-08T11:01:32;7.00;1.00
318;DHT22;146;53.448;10.228;2024-03-08T11:04:19;7.10;1.00
318;DHT22;146;53.448;10.228;2024-03-08T11:07:12;7.20;1.00
318;DHT22;146;53.448;10.228;2024-03-08T11:10:03;7.20;1.00
318;DHT22;146;53.448;10.228;2024-03-08T11:12:52;7.20;1.00
318;DHT22;146;53.448;10.228;2024-03-08T11:15:39;7.30;1.00
318;DHT22;146;53.448;10.228;2024-03-08T11:18:34;7.20;1.00
318;DHT22;146;53.448;10.228;2024-03-08T11:21:24;7.20;1.00
318;DHT22;146;53.448;10.228;2024-03-08T11:24:14;7.10;1.00
318;DHT22;146;53.448;10.228;2024-03-08T11:27:03;7.00;1.00
318;DHT22;146;53.448;10.228;2024-03-08T11:30:01;7.00;1.00
318;DHT22;146;53.448;10.228;2024-03-08T11:33:01;7.10;1.00
318;DHT22;146;53.448;10.228;2024-03-08T11:35:49;7.10;1.00
318;DHT22;146;53.448;10.228;2024-03-08T11:38:40;7.20;1.00
318;DHT22;146;53.448;10.228;2024-03-08T11:41:28;7.30;1.00
318;DHT22;146;53.448;10.228;2024-03-08T11:44:16;7.30;1.00
318;DHT22;146;53.448;10.228;2024-03-08T11:47:08;7.40;1.00
318;DHT22;146;53.448;10.228;2024-03-08T11:49:56;7.40;1.00
318;DHT22;146;53.448;10.228;2024-03-08T11:52:43;7.40;1.00
318;DHT22;146;53.448;10.228;2024-03-08T11:55:32;7.40;1.00
318;DHT22;146;53.448;10.228;2024-03-08T11:58:22;7.50;1.00
318;DHT22;146;53.448;10.228;2024-03-08T12:01:10;7.40;1.00
318;DHT22;146;53.448;10.228;2024-03-08T12:03:58;7.50;1.00
318;DHT22;146;53.448;10.228;2024-03-08T12:06:45;7.50;1.00
318;DHT22;146;53.448;10.228;2024-03-08T12:09:33;7.50;1.00
318;DHT22;146;53.448;10.228;2024-03-08T12:12:24;7.50;1.00
318;DHT22;146;53.448;10.228;2024-03-08T12:15:12;7.50;1.00
318;DHT22;146;53.448;10.228;2024-03-08T12:18:01;7.60;1.00
318;DHT22;146;53.448;10.228;2024-03-08T12:20:50;7.60;1.00
318;DHT22;146;53.448;10.228;2024-03-08T12:23:38;7.70;1.00
318;DHT22;146;53.448;10.228;2024-03-08T12:26:26;7.70;1.00
318;DHT22;146;53.448;10.228;2024-03-08T12:29:17;7.70;1.00
318;DHT22;146;53.448;10.228;2024-03-08T12:32:07;7.80;1.00
318;DHT22;146;53.448;10.228;2024-03-08T12:34:55;7.80;1.00
318;DHT22;146;53.448;10.228;2024-03-08T12:37:42;7.80;1.00
318;DHT22;146;53.448;10.228;2024-03-08T12:40:31;7.80;1.00
318;DHT22;146;53.448;10.228;2024-03-08T12:43:20;7.90;1.00
318;DHT22;146;53.448;10.228;2024-03-08T12:46:07;7.80;1.00
318;DHT22;146;53.448;10.228;2024-03-08T12:48:56;8.00;1.00
318;DHT22;146;53.448;10.228;2024-03-08T12:51:43;8.00;1.00
318;DHT22;146;53.448;10.228;2024-03-08T12:54:31;8.00;1.00
318;DHT22;146;53.448;10.228;2024-03-08T12:57:18;8.10;1.00
318;DHT22;146;53.448;10.228;2024-03-08T13:00:06;8.10;1.00
318;DHT22;146;53.448;10.228;2024-03-08T13:02:58;8.10;1.00
318;DHT22;146;53.448;10.228;2024-03-08T13:05:47;8.20;1.00
318;DHT22;146;53.448;10.228;2024-03-08T13:08:35;8.20;1.00
318;DHT22;146;53.448;10.228;2024-03-08T13:11:25;8.20;1.00
318;DHT22;146;53.448;10.228;2024-03-08T13:14:13;8.20;1.00
318;DHT22;146;53.448;10.228;2024-03-08T13:17:00;8.20;1.00
318;DHT22;146;53.448;10.228;2024-03-08T13:19:49;8.20;1.00
318;DHT22;146;53.448;10.228;2024-03-08T13:22:38;8.30;1.00
318;DHT22;146;53.448;10.228;2024-03-08T13:25:25;8.30;1.00
318;DHT22;146;53.448;10.228;2024-03-08T13:28:13;8.30;1.00
318;DHT22;146;53.448;10.228;2024-03-08T13:31:01;8.30;1.00
318;DHT22;146;53.448;10.228;2024-03-08T13:33:49;8.30;1.00
318;DHT22;146;53.448;10.228;2024-03-08T13:36:37;8.40;1.00
318;DHT22;146;53.448;10.228;2024-03-08T13:39:31;8.40;1.00
318;DHT22;146;53.448;10.228;2024-03-08T13:42:26;8.50;1.00
318;DHT22;146;53.448;10.228;2024-03-08T13:45:13;8.50;1.00
318;DHT22;146;53.448;10.228;2024-03-08T13:48:04;8.50;1.00
318;DHT22;146;53.448;10.228;2024-03-08T13:50:51;8.60;1.00
318;DHT22;146;53.448;10.228;2024-03-08T13:53:39;8.70;1.00
318;DHT22;146;53.448;10.228;2024-03-08T13:56:28;8.70;1.00
318;DHT22;146;53.448;10.228;2024-03-08T13:59:17;8.60;1.00
318;DHT22;146;53.448;10.228;2024-03-08T14:02:05;8.60;1.00
318;DHT22;146;53.448;10.228;2024-03-08T14:04:52;8.60;1.00
318;DHT22;146;53.448;10.228;2024-03-08T14:07:40;8.70;1.00
318;DHT22;146;53.448;10.228;2024-03-08T14:10:27;8.70;1.00
318;DHT22;146;53.448;10.228;2024-03-08T14:13:18;8.70;1.00
318;DHT22;146;53.448;10.228;2024-03-08T14:16:05;8.70;1.00
318;DHT22;146;53.448;10.228;2024-03-08T14:18:56;8.70;1.00
318;DHT22;146;53.448;10.228;2024-03-08T14:21:43;8.70;1.00
318;DHT22;146;53.448;10.228;2024-03-08T14:24:30;8.70;1.00
318;DHT22;146;53.448;10.228;2024-03-08T14:27:21;8.70;1.00
318;DHT22;146;53.448;10.228;2024-03-08T14:30:11;8.70;1.00
318;DHT22;146;53.448;10.228;2024-03-08T14:32:58;8.80;1.00
318;DHT22;146;53.448;10.228;2024-03-08T14:35:45;8.80;1.00
318;DHT22;146;53.448;10.228;2024-03-08T14:38:33;8.80;1.00
318;DHT22;146;53.448;10.228;2024-03-08T14:41:20;8.80;1.00
318;DHT22;146;53.448;10.228;2024-03-08T14:44:08;8.90;1.00
318;DHT22;146;53.448;10.228;2024-03-08T14:46:57;8.80;1.00
318;DHT22;146;53.448;10.228;2024-03-08T14:49:44;8.80;1.00
318;DHT22;146;53.448;10.228;2024-03-08T14:52:31;8.70;1.00
318;DHT22;146;53.448;10.228;2024-03-08T14:55:21;8.70;1.00
318;DHT22;146;53.448;10.228;2024-03-08T14:58:08;8.60;1.00
318;DHT22;146;53.448;10.228;2024-03-08T15:01:15;8.50;1.00
318;DHT22;146;53.448;10.228;2024-03-08T15:04:09;8.50;1.00
318;DHT22;146;53.448;10.228;2024-03-08T15:06:56;8.40;1.00
318;DHT22;146;53.448;10.228;2024-03-08T15:09:44;8.50;1.00
318;DHT22;146;53.448;10.228;2024-03-08T15:12:33;8.40;1.00
318;DHT22;146;53.448;10.228;2024-03-08T15:15:23;8.40;1.00
318;DHT22;146;53.448;10.228;2024-03-08T15:18:12;8.40;1.00
318;DHT22;146;53.448;10.228;2024-03-08T15:21:01;8.40;1.00
318;DHT22;146;53.448;10.228;2024-03-08T15:23:49;8.30;1.00
318;DHT22;146;53.448;10.228;2024-03-08T15:26:38;8.40;1.00
318;DHT22;146;53.448;10.228;2024-03-08T15:29:25;8.30;1.00
318;DHT22;146;53.448;10.228;2024-03-08T15:32:13;8.40;1.00
318;DHT22;146;53.448;10.228;2024-03-08T15:35:06;8.40;1.00
318;DHT22;146;53.448;10.228;2024-03-08T15:37:55;8.40;1.00
318;DHT22;146;53.448;10.228;2024-03-08T15:40:44;8.40;1.00
318;DHT22;146;53.448;10.228;2024-03-08T15:43:33;8.40;1.00
318;DHT22;146;53.448;10.228;2024-03-08T15:46:22;8.30;1.00
318;DHT22;146;53.448;10.228;2024-03-08T15:49:10;8.20;1.00
318;DHT22;146;53.448;10.228;2024-03-08T15:51:58;8.20;1.00
318;DHT22;146;53.448;10.228;2024-03-08T15:54:47;8.20;1.00
318;DHT22;146;53.448;10.228;2024-03-08T15:57:34;8.20;1.00
318;DHT22;146;53.448;10.228;2024-03-08T16:00:23;8.30;1.00
318;DHT22;146;53.448;10.228;2024-03-08T16:03:21;8.20;1.00
318;DHT22;146;53.448;10.228;2024-03-08T16:06:09;8.20;1.00
318;DHT22;146;53.448;10.228;2024-03-08T16:08:56;8.30;1.00
318;DHT22;146;53.448;10.228;2024-03-08T16:11:46;8.20;1.00
318;DHT22;146;53.448;10.228;2024-03-08T16:14:36;8.20;1.00
318;DHT22;146;53.448;10.228;2024-03-08T16:17:24;8.20;1.00
318;DHT22;146;53.448;10.228;2024-03-08T16:20:13;8.20;1.00
318;DHT22;146;53.448;10.228;2024-03-08T16:23:00;8.10;1.00
318;DHT22;146;53.448;10.228;2024-03-08T16:25:48;8.00;1.00
318;DHT22;146;53.448;10.228;2024-03-08T16:28:36;8.00;1.00
318;DHT22;146;53.448;10.228;2024-03-08T16:31:27;8.00;1.00
318;DHT22;146;53.448;10.228;2024-03-08T16:34:15;7.90;1.00
318;DHT22;146;53.448;10.228;2024-03-08T16:37:02;8.00;1.00
318;DHT22;146;53.448;10.228;2024-03-08T16:39:50;7.90;1.00
318;DHT22;146;53.448;10.228;2024-03-08T16:42:37;7.90;1.00
318;DHT22;146;53.448;10.228;2024-03-08T16:45:27;7.80;1.00
318;DHT22;146;53.448;10.228;2024-03-08T16:48:14;7.70;1.00
318;DHT22;146;53.448;10.228;2024-03-08T16:51:02;7.70;1.00
318;DHT22;146;53.448;10.228;2024-03-08T16:53:49;7.60;1.00
318;DHT22;146;53.448;10.228;2024-03-08T16:56:37;7.60;1.00
318;DHT22;146;53.448;10.228;2024-03-08T16:59:25;7.50;1.00
318;DHT22;146;53.448;10.228;2024-03-08T17:02:14;7.40;1.00
318;DHT22;146;53.448;10.228;2024-03-08T17:05:02;7.40;1.00
318;DHT22;146;53.448;10.228;2024-03-08T17:07:51;7.30;1.00
318;DHT22;146;53.448;10.228;2024-03-08T17:10:39;7.30;1.00
318;DHT22;146;53.448;10.228;2024-03-08T17:13:27;7.10;1.00
318;DHT22;146;53.448;10.228;2024-03-08T17:16:14;7.10;1.00
318;DHT22;146;53.448;10.228;2024-03-08T17:19:02;7.10;1.00
318;DHT22;146;53.448;10.228;2024-03-08T17:21:52;7.00;1.00
318;DHT22;146;53.448;10.228;2024-03-08T17:24:40;7.00;1.00
318;DHT22;146;53.448;10.228;2024-03-08T17:27:29;6.90;1.00
318;DHT22;146;53.448;10.228;2024-03-08T17:30:17;6.80;1.00
318;DHT22;146;53.448;10.228;2024-03-08T17:33:10;6.70;1.00
318;DHT22;146;53.448;10.228;2024-03-08T17:36:01;6.60;1.00
318;DHT22;146;53.448;10.228;2024-03-08T17:38:52;6.60;1.00
318;DHT22;146;53.448;10.228;2024-03-08T17:41:40;6.60;1.00
318;DHT22;146;53.448;10.228;2024-03-08T17:44:29;6.50;1.00
318;DHT22;146;53.448;10.228;2024-03-08T17:47:17;6.50;1.00
318;DHT22;146;53.448;10.228;2024-03-08T17:50:07;6.50;1.00
318;DHT22;146;53.448;10.228;2024-03-08T17:52:57;6.50;1.00
318;DHT22;146;53.448;10.228;2024-03-08T17:55:49;6.40;1.00
318;DHT22;146;53.448;10.228;2024-03-08T17:58:37;6.30;1.00
318;DHT22;146;53.448;10.228;2024-03-08T18:01:24;6.30;1.00
318;DHT22;146;53.448;10.228;2024-03-08T18:04:13;6.20;1.00
318;DHT22;146;53.448;10.228;2024-03-08T18:07:00;6.20;1.00
318;DHT22;146;53.448;10.228;2024-03-08T18:09:49;6.20;1.00
318;DHT22;146;53.448;10.228;2024-03-08T18:12:36;6.20;1.00
318;DHT22;146;53.448;10.228;2024-03-08T18:15:23;6.00;1.00
318;DHT22;146;53.448;10.228;2024-03-08T18:18:12;5.90;1.00
318;DHT22;146;53.448;10.228;2024-03-08T18:20:59;5.80;1.00
318;DHT22;146;53.448;10.228;2024-03-08T18:23:46;5.70;1.00
318;DHT22;146;53.448;10.228;2024-03-08T18:26:34;5.60;1.00
318;DHT22;146;53.448;10.228;2024-03-08T18:29:22;5.60;1.00
318;DHT22;146;53.448;10.228;2024-03-08T18:32:09;5.50;1.00
318;DHT22;146;53.448;10.228;2024-03-08T18:34:56;5.50;1.00
318;DHT22;146;53.448;10.228;2024-03-08T18:37:44;5.40;1.00
318;DHT22;146;53.448;10.228;2024-03-08T18:40:33;5.30;1.00
318;DHT22;146;53.448;10.228;2024-03-08T18:43:21;5.20;1.00
318;DHT22;146;53.448;10.228;2024-03-08T18:46:11;5.20;1.00
318;DHT22;146;53.448;10.228;2024-03-08T18:48:58;5.20;1.00
318;DHT22;146;53.448;10.228;2024-03-08T18:51:46;5.20;1.00
318;DHT22;146;53.448;10.228;2024-03-08T18:54:38;5.10;1.00
318;DHT22;146;53.448;10.228;2024-03-08T18:57:26;5.10;1.00
318;DHT22;146;53.448;10.228;2024-03-08T19:00:16;5.20;1.00
318;DHT22;146;53.448;10.228;2024-03-08T19:03:08;5.20;1.00
318;DHT22;146;53.448;10.228;2024-03-08T19:05:55;5.30;1.00
318;DHT22;146;53.448;10.228;2024-03-08T19:08:42;5.30;1.00
318;DHT22;146;53.448;10.228;2024-03-08T19:11:29;5.40;1.00
318;DHT22;146;53.448;10.228;2024-03-08T19:14:17;5.50;1.00
318;DHT22;146;53.448;10.228;2024-03-08T19:17:06;5.50;1.00
318;DHT22;146;53.448;10.228;2024-03-08T19:19:56;5.60;1.00
318;DHT22;146;53.448;10.228;2024-03-08T19:22:44;5.50;1.00